Portada
METAR-TAF:

METAR-TAF

Aeropuertos :

Aeropuerto Internacional Eleftherios Venizelos

Atenas, Grecia

latitud: 37-56N, longitud: 023-56E, altitud: 94 m

Observación

El informe se hizo hace 37 minutos, a las 04:20 UTC
Viento 1 kt con dirección variable
Temperatura 26°C
Humedad 45%
Presión 1011 hPa
Visibilidad 10 km o más
sin nubes por debajo de 1500 m y sin presencia de cumulonimbus.

METAR: LGAV 300420Z VRB01KT CAVOK 26/13 Q1011 NOSIG

Hora: 07:57 (04:57 UTC)

Pronóstico

El informe se hizo hace 5 horas y 57 minutos, a las 23:00 UTC
Pronóstico válido del 30 a las 00 UTC al 30 a las 24 UTC
Viento 10 kt del norte-noroeste
Visibilidad 10 km o más
sin nubes por debajo de 1500 m y sin presencia de cumulonimbus.
Temporalmente
del 30 a las 07 UTC al 30 a las 14 UTC
Viento 15 kt del norte-noreste

TAF: LGAV 292300Z 3000/3024 34010KT CAVOK TEMPO 3007/3014 02015KT

Observaciones y pronósticos meteorológicos de más de 4000 aeropuertos (mensajes METAR y TAF).

Los puntos amarillos y rojos representan las estaciones disponibles.

Ponga el ratón en el punto deseado para ver el nombre de la estación.

Haga clic para ver las observaciones y los pronósticos meteorológicos.

Para cambiar el mapa : haga clic en los botones verdes con una cruz de color negro para hacer un zoom, en el botón verde con un guión para alejar o en las flechas verdes para mapas adyacentes.


METAR-TAF: